Time;durP1;ratioP1;P1;durP2;ratioP2;P2;SDS_P1;SDS_P2;PMS_P1;PMS_P2;Temp;Humidity;BMP_temperature;BMP_pressure;BME280_temperature;BME280_humidity;BME280_pressure;Samples;Min_cycle;Max_cycle;Signal;HPM_P1;HPM_P2
2022/07/30 00:01:09;;;;;;;7.15;2.50;;;;;;;16.82;100.00;98674.63;5068437;28;20496;-72
2022/07/30 00:03:34;;;;;;;5.20;2.70;;;;;;;16.75;100.00;98674.75;5067647;28;20036;-70
2022/07/30 00:06:00;;;;;;;5.43;2.60;;;;;;;16.71;100.00;98684.50;5065488;28;20031;-72
2022/07/30 00:08:25;;;;;;;4.88;2.70;;;;;;;16.79;100.00;98689.63;5069780;28;20047;-74
2022/07/30 00:10:50;;;;;;;4.07;2.80;;;;;;;16.88;100.00;98717.38;5063564;28;20394;-74
2022/07/30 00:13:17;;;;;;;4.55;3.10;;;;;;;16.78;100.00;98707.09;5064977;28;20025;-74
2022/07/30 00:15:42;;;;;;;3.92;2.67;;;;;;;16.85;100.00;98690.53;5064739;28;20097;-72
2022/07/30 00:18:07;;;;;;;2.90;2.60;;;;;;;17.10;100.00;98712.00;5065724;28;20466;-74
2022/07/30 00:20:33;;;;;;;4.10;2.55;;;;;;;17.06;100.00;98702.66;5050980;28;20020;-74
2022/07/30 00:23:02;;;;;;;4.95;2.88;;;;;;;17.13;100.00;98702.47;5057222;28;20054;-74
2022/07/30 00:25:28;;;;;;;3.85;3.15;;;;;;;17.16;100.00;98700.09;5072538;28;20044;-74
2022/07/30 00:27:53;;;;;;;6.72;3.25;;;;;;;17.21;100.00;98700.16;5073651;28;20482;-73
2022/07/30 00:30:18;;;;;;;5.25;3.38;;;;;;;17.00;100.00;98709.94;5056438;28;20047;-74
2022/07/30 00:32:44;;;;;;;8.43;3.78;;;;;;;16.83;100.00;98696.25;5073307;28;20066;-74
2022/07/30 00:35:09;;;;;;;5.40;3.50;;;;;;;16.80;100.00;98713.13;5063904;28;20028;-74
2022/07/30 00:37:34;;;;;;;4.30;3.45;;;;;;;16.68;100.00;98698.66;5080880;28;20656;-74
2022/07/30 00:40:00;;;;;;;4.45;3.45;;;;;;;16.70;100.00;98715.66;5050751;28;20052;-71
2022/07/30 00:42:40;;;;;;;4.55;3.05;;;;;;;16.70;100.00;98729.31;5061852;28;20025;-74
2022/07/30 00:45:07;;;;;;;4.28;3.10;;;;;;;16.48;100.00;98726.44;5068320;28;20081;-74
2022/07/30 00:47:32;;;;;;;3.72;2.92;;;;;;;16.18;100.00;98710.28;5067146;28;20036;-74
2022/07/30 00:49:57;;;;;;;3.22;2.90;;;;;;;16.03;100.00;98708.06;5069314;28;20054;-73
2022/07/30 00:52:22;;;;;;;5.03;3.25;;;;;;;16.03;100.00;98718.16;5064880;28;20021;-74
2022/07/30 00:54:48;;;;;;;4.25;2.88;;;;;;;16.17;100.00;98723.09;5051018;28;20051;-72
2022/07/30 00:57:13;;;;;;;4.07;3.03;;;;;;;16.24;100.00;98742.06;5067399;28;20036;-74
2022/07/30 00:59:39;;;;;;;5.03;3.10;;;;;;;16.07;100.00;98717.44;5066165;28;20047;-73
2022/07/30 01:02:04;;;;;;;4.57;3.45;;;;;;;16.20;100.00;98713.59;5070145;28;20032;-73
2022/07/30 01:04:29;;;;;;;4.53;3.30;;;;;;;16.41;100.00;98714.84;5071057;28;20107;-74
2022/07/30 01:06:55;;;;;;;3.92;3.20;;;;;;;16.35;100.00;98713.91;5054308;28;20036;-72
2022/07/30 01:09:20;;;;;;;5.97;3.33;;;;;;;16.32;100.00;98725.31;5068566;28;20036;-72
2022/07/30 01:11:46;;;;;;;7.68;3.63;;;;;;;16.31;100.00;98729.09;5067261;28;20032;-72
2022/07/30 01:14:11;;;;;;;5.55;3.60;;;;;;;16.24;100.00;98722.13;5052933;28;20030;-73
2022/07/30 01:16:41;;;;;;;4.20;3.60;;;;;;;16.05;100.00;98702.38;5064655;28;20031;-72
2022/07/30 01:22:08;;;;;;;4.45;3.50;;;;;;;16.04;100.00;98728.84;5069366;28;20039;-72
2022/07/30 01:24:50;;;;;;;5.45;3.60;;;;;;;16.03;100.00;98727.16;5050712;28;20021;-72
2022/07/30 01:27:18;;;;;;;8.55;3.00;;;;;;;15.86;100.00;98713.44;5062457;28;20028;-73
2022/07/30 01:29:45;;;;;;;6.72;3.40;;;;;;;15.94;100.00;98731.34;5064178;28;20470;-72
2022/07/30 01:32:12;;;;;;;4.70;3.50;;;;;;;15.98;100.00;98725.16;5062863;28;20033;-72
2022/07/30 01:34:38;;;;;;;4.60;3.70;;;;;;;15.90;100.00;98722.81;5067425;28;20028;-72
2022/07/30 01:37:07;;;;;;;4.95;3.70;;;;;;;15.87;100.00;98736.09;5049823;28;20829;-74
2022/07/30 01:39:34;;;;;;;4.43;3.50;;;;;;;15.86;100.00;98718.06;5051336;28;20040;-74
2022/07/30 01:42:04;;;;;;;8.75;3.58;;;;;;;15.89;100.00;98736.69;5049361;28;20542;-73
2022/07/30 01:44:29;;;;;;;5.20;3.83;;;;;;;15.97;100.00;98745.31;5066434;28;20602;-74
2022/07/30 01:46:55;;;;;;;5.78;3.17;;;;;;;15.87;100.00;98728.72;5060060;28;20039;-73
2022/07/30 01:49:22;;;;;;;4.85;3.75;;;;;;;15.93;100.00;98744.16;5051630;28;20020;-73
2022/07/30 01:51:49;;;;;;;5.95;4.00;;;;;;;15.90;100.00;98721.97;5051646;28;20413;-73
2022/07/30 01:54:16;;;;;;;6.10;3.40;;;;;;;15.60;100.00;98697.56;5068490;28;20115;-74
2022/07/30 01:56:44;;;;;;;4.47;3.33;;;;;;;15.77;100.00;98723.91;5050280;28;20028;-74
2022/07/30 01:59:12;;;;;;;6.35;4.15;;;;;;;15.87;100.00;98739.63;5065640;28;20021;-73
2022/07/30 02:01:38;;;;;;;6.50;3.92;;;;;;;15.74;100.00;98720.81;5069670;28;20028;-73
2022/07/30 02:04:03;;;;;;;4.13;3.55;;;;;;;15.56;100.00;98719.00;5052425;28;20039;-74
2022/07/30 02:06:43;;;;;;;4.93;3.70;;;;;;;15.50;100.00;98723.50;5066018;28;20054;-74
2022/07/30 02:09:09;;;;;;;5.65;3.90;;;;;;;15.38;100.00;98733.59;5048672;28;20025;-73
2022/07/30 02:14:32;;;;;;;4.35;3.90;;;;;;;15.25;100.00;98731.94;5064375;28;20031;-72
2022/07/30 02:17:01;;;;;;;4.82;3.40;;;;;;;15.06;100.00;98714.00;5061609;28;20036;-72
2022/07/30 02:19:33;;;;;;;5.90;4.10;;;;;;;15.16;100.00;98732.50;5050666;28;20021;-72
2022/07/30 02:22:06;;;;;;;5.30;3.97;;;;;;;15.13;100.00;98737.34;5045756;28;20575;-71
2022/07/30 02:24:33;;;;;;;6.07;4.30;;;;;;;14.97;100.00;98724.41;5047262;28;20035;-72
2022/07/30 02:27:03;;;;;;;5.13;3.85;;;;;;;15.14;100.00;98724.53;5058945;28;20309;-72
2022/07/30 02:29:30;;;;;;;5.88;4.20;;;;;;;15.10;100.00;98735.09;5048674;28;20100;-71
2022/07/30 02:31:58;;;;;;;5.82;4.00;;;;;;;15.11;100.00;98722.28;5068536;28;20158;-72
2022/07/30 02:34:25;;;;;;;8.55;3.95;;;;;;;15.10;100.00;98740.53;5067859;28;20028;-72
2022/07/30 02:36:52;;;;;;;8.05;4.00;;;;;;;15.00;100.00;98744.91;5065388;28;20116;-72
2022/07/30 02:39:20;;;;;;;6.72;4.28;;;;;;;14.88;100.00;98739.41;5061001;28;20401;-72
2022/07/30 02:41:46;;;;;;;5.80;4.40;;;;;;;14.85;100.00;98745.34;5071181;28;20115;-72
2022/07/30 02:44:15;;;;;;;5.10;4.20;;;;;;;14.72;100.00;98732.75;5071483;28;20032;-72
2022/07/30 02:46:41;;;;;;;5.68;4.32;;;;;;;14.72;100.00;98748.25;5064988;28;20035;-72
2022/07/30 02:49:08;;;;;;;5.10;3.88;;;;;;;14.78;100.00;98766.41;5047811;28;20107;-72
2022/07/30 02:51:34;;;;;;;4.78;3.70;;;;;;;14.76;100.00;98733.94;5051261;28;20016;-72
2022/07/30 02:54:02;;;;;;;5.43;4.68;;;;;;;14.85;100.00;98745.34;5067241;28;20040;-71
2022/07/30 02:56:29;;;;;;;4.25;3.85;;;;;;;14.75;100.00;98743.19;5067738;28;20035;-72
2022/07/30 02:58:56;;;;;;;4.18;3.60;;;;;;;14.84;100.00;98773.66;5067090;28;20032;-72
2022/07/30 03:01:23;;;;;;;8.27;4.10;;;;;;;14.91;100.00;98777.13;5040099;28;20021;-70
2022/07/30 03:03:51;;;;;;;7.18;4.60;;;;;;;14.68;100.00;98770.50;5063546;28;20158;-72
2022/07/30 03:06:18;;;;;;;5.85;4.63;;;;;;;14.64;100.00;98780.19;5046177;28;20037;-71
2022/07/30 03:08:44;;;;;;;5.32;4.18;;;;;;;14.48;100.00;98776.19;5065122;28;20033;-72
2022/07/30 03:11:11;;;;;;;5.88;4.20;;;;;;;14.48;100.00;98792.50;5046722;28;20137;-72
2022/07/30 03:13:36;;;;;;;6.07;4.35;;;;;;;14.39;100.00;98793.91;5047378;28;20052;-73
2022/07/30 03:16:05;;;;;;;5.65;4.00;;;;;;;14.18;100.00;98764.44;5062785;28;20059;-72
2022/07/30 03:18:33;;;;;;;6.82;4.05;;;;;;;14.30;100.00;98784.38;5045410;28;20040;-73
2022/07/30 03:21:00;;;;;;;5.18;3.95;;;;;;;14.36;100.00;98793.53;5066555;28;20038;-73
2022/07/30 03:23:26;;;;;;;11.10;5.75;;;;;;;14.45;100.00;98803.03;5050217;28;20031;-72
2022/07/30 03:26:00;;;;;;;10.82;5.40;;;;;;;14.52;100.00;98787.47;5063521;28;20036;-72
2022/07/30 03:28:29;;;;;;;9.88;5.50;;;;;;;14.34;100.00;98791.03;5064568;28;20051;-72
2022/07/30 03:30:55;;;;;;;8.15;4.93;;;;;;;14.29;100.00;98803.66;5046369;28;20135;-72
2022/07/30 03:33:23;;;;;;;8.95;5.07;;;;;;;14.23;100.00;98795.34;5068532;28;20482;-73
2022/07/30 03:35:50;;;;;;;7.22;4.75;;;;;;;14.17;100.00;98781.81;5064542;28;20218;-72
2022/07/30 03:38:16;;;;;;;7.85;4.63;;;;;;;14.15;100.00;98809.25;5055780;28;20036;-72
2022/07/30 03:40:43;;;;;;;13.05;4.65;;;;;;;14.04;100.00;98804.56;5056899;28;20115;-72
2022/07/30 03:43:11;;;;;;;9.70;4.60;;;;;;;13.85;100.00;98781.94;5049003;28;20497;-71
2022/07/30 03:45:37;;;;;;;15.50;5.07;;;;;;;13.90;100.00;98817.47;5055142;28;20048;-72
2022/07/30 03:48:06;;;;;;;8.93;4.40;;;;;;;13.68;100.00;98794.47;5061991;28;20029;-71
2022/07/30 03:50:34;;;;;;;8.00;4.43;;;;;;;13.68;100.00;98802.63;5065238;28;20770;-72
2022/07/30 03:53:00;;;;;;;5.07;4.03;;;;;;;13.64;100.00;98791.34;5063533;28;20029;-72
2022/07/30 03:55:25;;;;;;;5.25;4.25;;;;;;;13.81;100.00;98803.34;5041941;28;20020;-71
2022/07/30 03:57:51;;;;;;;5.65;4.32;;;;;;;13.95;100.00;98825.78;5052279;28;20024;-72
2022/07/30 04:00:17;;;;;;;5.05;4.28;;;;;;;14.00;100.00;98808.78;5065619;28;20032;-72
2022/07/30 04:02:44;;;;;;;8.25;4.32;;;;;;;14.11;100.00;98824.34;5042672;28;20401;-72
2022/07/30 04:05:10;;;;;;;6.32;3.97;;;;;;;14.09;100.00;98826.47;5055247;28;20028;-70
2022/07/30 04:07:36;;;;;;;5.65;4.80;;;;;;;14.07;100.00;98836.78;5058830;28;20028;-71
2022/07/30 04:10:02;;;;;;;4.57;3.80;;;;;;;13.97;100.00;98825.56;5062804;28;20105;-71
2022/07/30 04:12:27;;;;;;;5.75;4.07;;;;;;;14.07;100.00;98844.06;5043561;28;20024;-71
2022/07/30 04:14:52;;;;;;;5.85;4.50;;;;;;;14.00;100.00;98839.53;5063136;28;20032;-71
2022/07/30 04:17:26;;;;;;;6.03;4.20;;;;;;;13.98;100.00;98824.50;5065654;28;20027;-71
2022/07/30 04:20:06;;;;;;;6.60;4.15;;;;;;;13.99;100.00;98828.88;5066103;28;20493;-71
2022/07/30 04:22:34;;;;;;;5.53;4.15;;;;;;;13.84;100.00;98812.09;5062275;28;20048;-70
2022/07/30 04:25:02;;;;;;;7.30;4.80;;;;;;;13.91;100.00;98823.72;5044853;28;20035;-71
2022/07/30 04:27:30;;;;;;;6.38;4.47;;;;;;;13.85;100.00;98824.63;5063103;28;20033;-71
2022/07/30 04:29:56;;;;;;;6.43;4.00;;;;;;;14.05;100.00;98852.47;5068288;28;20020;-60
2022/07/30 04:32:21;;;;;;;11.15;4.78;;;;;;;14.21;100.00;98859.22;5063928;28;20021;-60
2022/07/30 04:34:49;;;;;;;6.60;4.10;;;;;;;14.18;100.00;98860.50;5062174;28;20032;-60
2022/07/30 04:37:16;;;;;;;5.82;4.50;;;;;;;14.26;100.00;98843.03;5064013;28;20029;-60
2022/07/30 04:39:42;;;;;;;7.88;4.30;;;;;;;14.32;100.00;98857.63;5064040;28;20032;-60
2022/07/30 04:42:07;;;;;;;6.30;4.43;;;;;;;14.35;100.00;98868.06;5062379;28;20621;-60
2022/07/30 04:44:33;;;;;;;7.20;4.30;;;;;;;14.36;100.00;98850.69;5045666;28;20158;-69
2022/07/30 04:46:58;;;;;;;6.70;4.30;;;;;;;14.54;100.00;98863.47;5059568;28;20024;-67
2022/07/30 04:49:26;;;;;;;10.77;4.40;;;;;;;14.62;100.00;98869.47;5057009;28;20032;-69
2022/07/30 04:51:53;;;;;;;5.82;4.18;;;;;;;14.69;100.00;98867.47;5063943;28;20024;-71
2022/07/30 04:54:20;;;;;;;4.72;3.78;;;;;;;14.65;100.00;98844.50;5060049;28;22325;-70
2022/07/30 04:56:46;;;;;;;6.75;4.30;;;;;;;14.96;100.00;98880.78;5063574;28;20085;-69
2022/07/30 04:59:13;;;;;;;10.23;4.35;;;;;;;15.07;100.00;98877.25;5064300;28;20025;-61
2022/07/30 05:01:40;;;;;;;6.32;3.78;;;;;;;15.19;100.00;98871.84;5064783;28;20033;-61
2022/07/30 05:04:07;;;;;;;7.35;3.75;;;;;;;15.29;100.00;98884.91;5056839;28;20029;-62
2022/07/30 05:06:33;;;;;;;9.93;4.15;;;;;;;15.44;100.00;98877.16;5064732;28;20059;-61
2022/07/30 05:08:58;;;;;;;9.43;4.13;;;;;;;15.55;100.00;98884.50;5065348;28;20418;-61
2022/07/30 05:11:24;;;;;;;11.85;4.20;;;;;;;15.67;100.00;98870.91;5060478;28;20059;-61
2022/07/30 05:13:49;;;;;;;6.65;3.95;;;;;;;15.76;100.00;98880.44;5058631;28;20120;-61
2022/07/30 05:16:14;;;;;;;9.65;3.80;;;;;;;15.92;100.00;98878.09;5056967;28;20587;-61
2022/07/30 05:18:40;;;;;;;12.20;4.05;;;;;;;16.10;100.00;98879.88;5053845;28;20534;-61
2022/07/30 05:21:06;;;;;;;8.70;3.53;;;;;;;16.20;100.00;98880.94;5061242;28;20508;-61
2022/07/30 05:23:32;;;;;;;11.48;4.32;;;;;;;16.22;100.00;98888.91;5059604;28;20078;-65
2022/07/30 05:25:57;;;;;;;10.52;4.20;;;;;;;16.37;100.00;98881.06;5056205;28;20437;-61
2022/07/30 05:28:25;;;;;;;8.20;4.57;;;;;;;16.44;100.00;98881.75;5056383;28;20039;-65
2022/07/30 05:30:52;;;;;;;4.93;4.00;;;;;;;16.62;100.00;98878.03;5065562;28;20032;-62
2022/07/30 05:33:17;;;;;;;9.80;4.22;;;;;;;16.79;100.00;98891.81;5062277;28;20610;-62
2022/07/30 05:35:42;;;;;;;7.43;4.10;;;;;;;16.88;100.00;98881.34;5061584;28;20031;-62
2022/07/30 05:38:08;;;;;;;6.07;4.00;;;;;;;17.03;100.00;98889.03;5063802;28;20107;-63
2022/07/30 05:40:33;;;;;;;4.68;3.50;;;;;;;17.14;100.00;98887.31;5069487;28;20028;-62
2022/07/30 05:42:58;;;;;;;7.57;4.10;;;;;;;17.34;100.00;98890.41;5064351;28;20444;-63
2022/07/30 05:45:24;;;;;;;4.70;3.92;;;;;;;17.47;100.00;98889.28;5060512;28;20128;-63
2022/07/30 05:47:49;;;;;;;6.38;3.72;;;;;;;17.69;100.00;98887.50;5058606;28;20677;-62
2022/07/30 05:50:14;;;;;;;10.32;3.90;;;;;;;17.79;100.00;98864.97;5061179;28;20074;-62
2022/07/30 05:52:40;;;;;;;6.03;4.00;;;;;;;18.33;100.00;98892.63;5058858;28;20120;-62
2022/07/30 05:55:06;;;;;;;6.88;4.05;;;;;;;18.59;100.00;98893.81;5053690;28;20032;-62
2022/07/30 05:57:34;;;;;;;5.90;4.15;;;;;;;18.80;98.79;98891.38;5057639;28;20493;-62
2022/07/30 06:00:00;;;;;;;6.65;3.75;;;;;;;19.12;94.51;98890.66;5060164;28;20489;-62
2022/07/30 06:02:25;;;;;;;6.68;4.10;;;;;;;19.39;90.05;98888.75;5056980;28;20070;-61
2022/07/30 06:04:51;;;;;;;4.85;3.83;;;;;;;19.49;87.01;98899.00;5044532;28;20119;-62
2022/07/30 06:07:16;;;;;;;5.28;3.90;;;;;;;19.67;84.20;98890.41;5061751;28;20024;-63
2022/07/30 06:09:41;;;;;;;7.03;3.50;;;;;;;20.09;82.35;98897.06;5060028;28;20131;-61
2022/07/30 06:12:07;;;;;;;5.85;3.85;;;;;;;20.45;77.28;98895.41;5056920;28;20028;-61
2022/07/30 06:14:32;;;;;;;4.72;3.30;;;;;;;20.60;75.62;98897.44;5056782;28;20028;-61
2022/07/30 06:16:57;;;;;;;4.60;3.35;;;;;;;20.62;76.50;98897.16;5060569;28;20070;-61
2022/07/30 06:19:23;;;;;;;5.78;4.07;;;;;;;20.85;73.71;98898.66;5060786;28;20070;-62
2022/07/30 06:21:48;;;;;;;5.90;3.55;;;;;;;21.34;69.51;98898.28;5061169;28;20599;-62
2022/07/30 06:24:13;;;;;;;4.70;3.40;;;;;;;21.75;67.75;98907.47;5058575;28;20039;-62
2022/07/30 06:26:38;;;;;;;6.05;3.50;;;;;;;22.09;64.74;98896.72;5041437;28;20037;-61
2022/07/30 06:29:05;;;;;;;5.97;3.65;;;;;;;22.22;62.48;98900.88;5058932;28;20059;-63
2022/07/30 06:31:30;;;;;;;4.55;2.95;;;;;;;22.91;61.01;98904.84;5057986;28;20543;-61
2022/07/30 06:33:55;;;;;;;7.43;2.78;;;;;;;23.32;60.77;98899.19;5062199;28;20032;-64
2022/07/30 06:36:21;;;;;;;7.35;3.45;;;;;;;23.61;56.70;98915.00;5058757;28;20548;-62
2022/07/30 06:38:46;;;;;;;5.50;3.50;;;;;;;24.52;54.32;98904.34;5055720;28;20063;-63
2022/07/30 06:41:11;;;;;;;6.38;3.50;;;;;;;25.29;52.23;98906.22;5060744;28;20653;-63
2022/07/30 06:43:37;;;;;;;6.15;3.05;;;;;;;25.73;50.51;98905.03;5060948;28;20552;-71
2022/07/30 06:46:02;;;;;;;5.20;3.38;;;;;;;28.19;45.52;98907.34;5047757;28;20470;-61
2022/07/30 06:48:30;;;;;;;4.63;3.10;;;;;;;29.22;43.73;98899.00;5069813;28;20445;-62
2022/07/30 06:50:55;;;;;;;7.57;3.67;;;;;;;30.51;40.48;98902.09;5067837;28;20086;-69
2022/07/30 06:53:21;;;;;;;6.28;3.10;;;;;;;31.14;38.16;98894.78;5070448;28;20032;-65
2022/07/30 06:55:46;;;;;;;6.25;2.88;;;;;;;31.85;36.52;98907.13;5045365;28;20135;-61
2022/07/30 06:58:11;;;;;;;6.88;3.22;;;;;;;31.61;36.24;98908.63;5065073;28;20111;-61
2022/07/30 07:00:36;;;;;;;5.85;3.15;;;;;;;32.39;35.29;98904.34;5062629;28;20021;-61
2022/07/30 07:03:02;;;;;;;5.30;2.83;;;;;;;32.63;34.96;98899.97;5060481;28;20036;-66
2022/07/30 07:05:27;;;;;;;5.88;2.92;;;;;;;32.72;34.47;98909.09;5066664;28;20103;-66
2022/07/30 07:07:53;;;;;;;5.78;3.00;;;;;;;33.41;33.29;98898.13;5066008;28;20028;-71
2022/07/30 07:10:19;;;;;;;6.07;2.83;;;;;;;33.03;33.32;98893.72;5063887;28;20047;-72
2022/07/30 07:12:45;;;;;;;5.75;2.60;;;;;;;34.68;31.31;98900.22;5066796;28;20066;-73
2022/07/30 07:15:10;;;;;;;5.10;2.90;;;;;;;35.33;30.04;98894.19;5067351;28;20046;-74
2022/07/30 07:17:36;;;;;;;6.47;2.58;;;;;;;35.93;29.17;98904.38;5068495;28;20036;-72
2022/07/30 07:20:01;;;;;;;4.50;2.63;;;;;;;35.56;29.18;98888.69;5069344;28;20118;-74
2022/07/30 07:22:27;;;;;;;4.25;2.38;;;;;;;36.01;29.88;98906.16;5056962;28;20029;-73
2022/07/30 07:24:52;;;;;;;4.30;2.50;;;;;;;35.65;29.64;98911.03;5066998;28;20023;-73
2022/07/30 07:27:18;;;;;;;7.15;2.53;;;;;;;35.52;29.40;98906.69;5069922;28;20428;-74
2022/07/30 07:29:43;;;;;;;6.25;2.80;;;;;;;35.36;29.41;98905.91;5050100;28;20090;-73
2022/07/30 07:32:08;;;;;;;6.10;2.42;;;;;;;35.96;28.93;98910.06;5047736;28;20530;-69
2022/07/30 07:34:34;;;;;;;4.10;2.67;;;;;;;35.27;29.84;98906.13;5045511;28;20122;-73
2022/07/30 07:36:59;;;;;;;4.28;2.05;;;;;;;36.02;29.11;98904.97;5062051;28;20058;-67
2022/07/30 07:39:24;;;;;;;5.45;2.45;;;;;;;36.33;28.63;98918.06;5063299;28;20020;-67
2022/07/30 07:41:50;;;;;;;6.10;2.40;;;;;;;36.62;28.25;98913.00;5065810;28;20580;-67
2022/07/30 07:44:15;;;;;;;4.63;2.10;;;;;;;36.80;27.83;98907.69;5065315;28;20700;-67
2022/07/30 07:46:40;;;;;;;4.70;2.33;;;;;;;36.44;27.71;98915.47;5064270;28;20033;-67
2022/07/30 07:49:06;;;;;;;8.90;2.20;;;;;;;36.25;27.66;98899.41;5061082;28;20085;-67
2022/07/30 07:51:31;;;;;;;6.35;2.22;;;;;;;36.48;27.88;98902.25;5059504;28;20564;-76
2022/07/30 07:53:56;;;;;;;5.07;2.13;;;;;;;36.79;27.36;98903.25;5065896;28;20154;-68
2022/07/30 07:56:23;;;;;;;4.28;2.33;;;;;;;36.72;27.42;98889.81;5059882;28;20058;-72
2022/07/30 07:58:48;;;;;;;5.45;2.08;;;;;;;37.11;26.94;98903.00;5057204;28;20039;-71
2022/07/30 08:01:13;;;;;;;4.18;2.58;;;;;;;35.99;27.73;98909.31;5062163;28;20029;-74
2022/07/30 08:03:39;;;;;;;5.85;2.30;;;;;;;35.33;28.36;98902.63;5061100;28;20594;-73
2022/07/30 08:06:04;;;;;;;4.97;1.83;;;;;;;36.50;27.81;98907.50;5064066;28;20126;-72
2022/07/30 08:08:29;;;;;;;4.30;2.13;;;;;;;36.36;27.12;98894.78;5068681;28;20025;-73
2022/07/30 08:10:55;;;;;;;3.78;1.92;;;;;;;36.83;27.23;98912.56;5066517;28;20115;-73
2022/07/30 08:13:21;;;;;;;4.90;2.70;;;;;;;37.23;26.11;98909.25;5068593;28;20035;-69
2022/07/30 08:15:46;;;;;;;2.88;2.10;;;;;;;37.36;25.66;98898.53;5046903;28;20032;-72
2022/07/30 08:18:11;;;;;;;4.05;2.40;;;;;;;37.04;26.30;98896.03;5066724;28;20036;-75
2022/07/30 08:20:38;;;;;;;5.30;2.45;;;;;;;37.01;26.53;98867.75;5045817;28;20031;-75
2022/07/30 08:23:04;;;;;;;6.63;2.00;;;;;;;37.31;26.76;98907.34;5049168;28;20099;-76
2022/07/30 08:25:29;;;;;;;4.63;2.33;;;;;;;36.18;25.83;98902.91;5039775;28;20131;-75
2022/07/30 08:27:55;;;;;;;8.65;3.28;;;;;;;35.78;26.96;98906.06;5033747;28;20107;-73
2022/07/30 08:30:20;;;;;;;5.07;2.70;;;;;;;36.23;27.03;98896.16;5047889;28;20025;-71
2022/07/30 08:32:45;;;;;;;6.88;2.97;;;;;;;36.35;27.19;98898.00;5065919;28;20573;-70
2022/07/30 08:35:11;;;;;;;4.32;2.53;;;;;;;35.63;27.13;98890.06;5062129;28;20944;-71
2022/07/30 08:37:39;;;;;;;6.43;2.15;;;;;;;36.65;26.61;98892.50;5064680;28;20028;-74
2022/07/30 08:40:06;;;;;;;3.60;2.30;;;;;;;37.16;26.44;98903.47;5065138;28;20029;-71
2022/07/30 08:42:33;;;;;;;4.15;2.50;;;;;;;37.98;24.46;98884.09;5064000;28;20501;-71
2022/07/30 08:44:59;;;;;;;4.78;2.25;;;;;;;37.87;24.60;98908.53;5065027;28;20028;-72
2022/07/30 08:47:30;;;;;;;3.75;2.08;;;;;;;38.01;24.97;98913.56;5056622;28;20044;-75
2022/07/30 08:50:00;;;;;;;5.95;2.70;;;;;;;37.15;25.43;98901.81;5057708;28;20033;-73
2022/07/30 08:52:26;;;;;;;6.70;1.98;;;;;;;38.11;24.25;98908.03;5069622;28;20025;-72
2022/07/30 08:54:52;;;;;;;6.20;2.70;;;;;;;37.75;25.06;98906.75;5045757;28;20393;-73
2022/07/30 08:57:17;;;;;;;8.38;2.80;;;;;;;37.84;25.02;98892.38;5040835;28;20029;-65
2022/07/30 08:59:44;;;;;;;6.78;3.05;;;;;;;37.90;24.70;98897.28;5060909;28;20066;-72
2022/07/30 09:02:09;;;;;;;6.35;2.33;;;;;;;37.47;24.55;98901.53;5061957;28;20023;-72
2022/07/30 09:04:34;;;;;;;5.35;2.33;;;;;;;34.92;27.32;98895.59;5061589;28;20028;-75
2022/07/30 09:07:01;;;;;;;6.68;4.25;;;;;;;35.06;27.27;98920.44;5048828;28;20028;-73
2022/07/30 09:09:26;;;;;;;7.72;2.30;;;;;;;35.62;27.05;98896.88;5066339;28;20028;-74
2022/07/30 09:11:52;;;;;;;7.50;3.08;;;;;;;37.03;25.79;98913.34;5046266;28;20382;-75
2022/07/30 09:14:17;;;;;;;3.13;2.13;;;;;;;34.82;27.40;98896.97;5053528;28;20122;-72
2022/07/30 09:16:44;;;;;;;4.85;1.88;;;;;;;34.02;29.04;98912.00;5067275;28;20036;-71
2022/07/30 09:19:15;;;;;;;5.97;2.00;;;;;;;35.62;26.65;98914.56;5066868;28;20314;-70
2022/07/30 09:21:41;;;;;;;4.82;1.60;;;;;;;36.59;25.28;98885.56;5063342;28;20043;-70
2022/07/30 09:24:11;;;;;;;4.15;1.70;;;;;;;38.34;23.63;98909.91;5068931;28;20032;-71
2022/07/30 09:27:12;;;;;;;3.65;1.88;;;;;;;35.58;26.02;98910.03;5064882;28;20040;-73
2022/07/30 09:29:37;;;;;;;4.20;1.85;;;;;;;32.73;29.39;98896.72;5022592;28;20168;-74
2022/07/30 09:32:08;;;;;;;4.25;1.50;;;;;;;34.80;27.21;98888.09;5060149;28;20064;-74
2022/07/30 09:34:38;;;;;;;3.85;1.70;;;;;;;34.58;27.81;98906.38;5053890;28;20165;-71
2022/07/30 09:37:16;;;;;;;4.40;1.73;;;;;;;37.10;25.37;98884.41;5065142;28;20473;-68
2022/07/30 09:39:42;;;;;;;4.72;1.75;;;;;;;37.01;25.53;98904.41;5068582;28;20036;-69
2022/07/30 09:42:17;;;;;;;8.18;5.28;;;;;;;36.83;25.27;98904.91;5064987;28;20055;-69
2022/07/30 09:44:42;;;;;;;4.25;1.80;;;;;;;35.49;25.38;98908.22;5064924;28;20063;-69
2022/07/30 09:47:08;;;;;;;5.65;1.83;;;;;;;36.33;25.46;98900.38;5065105;28;20105;-69
2022/07/30 09:49:33;;;;;;;4.97;1.70;;;;;;;35.82;26.58;98903.31;5064006;28;20035;-69
2022/07/30 09:51:58;;;;;;;3.90;1.48;;;;;;;35.75;26.40;98892.75;5060881;28;20024;-69
2022/07/30 09:54:44;;;;;;;4.07;1.80;;;;;;;33.51;28.56;98912.50;5057045;28;20037;-69
2022/07/30 09:57:09;;;;;;;3.60;1.60;;;;;;;31.53;31.57;98909.53;5059854;28;20037;-70
2022/07/30 09:59:34;;;;;;;4.10;1.92;;;;;;;31.34;31.18;98915.56;5043525;28;20051;-69
2022/07/30 10:02:00;;;;;;;6.78;1.92;;;;;;;33.22;29.16;98899.53;5065442;28;20062;-74
2022/07/30 10:04:31;;;;;;;3.42;2.00;;;;;;;35.62;27.09;98900.50;5052978;28;20397;-76
2022/07/30 10:06:58;;;;;;;3.72;1.70;;;;;;;36.98;25.46;98888.25;5047870;28;20021;-77
2022/07/30 10:09:28;;;;;;;5.95;1.50;;;;;;;36.66;24.83;98899.00;5052788;28;20523;-65
2022/07/30 10:11:57;;;;;;;4.47;1.90;;;;;;;34.80;26.81;98913.38;5060376;28;20028;-67
2022/07/30 10:14:24;;;;;;;8.02;1.45;;;;;;;33.98;27.84;98903.50;5063519;28;20593;-66
2022/07/30 10:16:50;;;;;;;2.85;1.50;;;;;;;32.53;29.59;98912.44;5064623;28;20995;-66
2022/07/30 10:19:17;;;;;;;3.13;1.48;;;;;;;34.28;27.93;98910.75;5066954;28;20046;-66
2022/07/30 10:21:43;;;;;;;5.05;1.73;;;;;;;33.43;29.25;98905.00;5063859;28;20069;-65
2022/07/30 10:24:09;;;;;;;3.33;1.67;;;;;;;32.15;30.31;98902.28;5059833;28;20466;-65
2022/07/30 10:26:35;;;;;;;3.15;1.83;;;;;;;31.52;31.46;98901.47;5059387;28;20062;-65
2022/07/30 10:29:02;;;;;;;3.92;1.95;;;;;;;33.52;29.31;98897.28;5064536;28;20017;-66
2022/07/30 10:31:27;;;;;;;6.25;1.70;;;;;;;35.72;26.92;98893.47;5060455;28;20028;-66
2022/07/30 10:33:53;;;;;;;2.80;1.50;;;;;;;35.20;26.50;98891.88;5067460;28;20043;-66
2022/07/30 10:36:20;;;;;;;3.85;1.13;;;;;;;37.63;24.35;98899.34;5064798;28;20020;-66
2022/07/30 10:38:46;;;;;;;3.33;1.30;;;;;;;37.43;24.00;98895.00;5065518;28;20040;-65
2022/07/30 10:41:56;;;;;;;3.08;1.15;;;;;;;37.58;23.96;98902.50;5061960;28;20155;-68
2022/07/30 10:44:54;;;;;;;2.25;1.50;;;;;;;37.63;23.58;98890.06;5045711;28;20048;-65
2022/07/30 10:47:20;;;;;;;;;;;;;;;36.67;25.13;98901.41;5067214;28;20035;-65
2022/07/30 10:50:08;;;;;;;2.72;1.60;;;;;;;36.61;25.29;98886.81;5064744;28;19920;-65
2022/07/30 10:52:42;;;;;;;1.83;1.30;;;;;;;37.54;24.39;98889.53;5063894;28;20066;-65
2022/07/30 10:55:13;;;;;;;2.65;1.65;;;;;;;37.24;24.05;98888.28;5063794;28;20107;-65
2022/07/30 10:57:55;;;;;;;3.53;1.50;;;;;;;35.28;25.52;98885.25;5063010;28;20059;-65
2022/07/30 11:00:21;;;;;;;3.05;1.60;;;;;;;34.30;27.14;98875.53;5063252;28;20111;-66
2022/07/30 11:03:15;;;;;;;3.78;1.52;;;;;;;33.54;28.73;98880.13;5067742;28;20211;-63
2022/07/30 11:05:41;;;;;;;4.80;1.70;;;;;;;35.82;26.45;98876.00;5061896;28;20056;-64
2022/07/30 11:08:27;;;;;;;3.38;1.60;;;;;;;34.11;26.91;98883.78;5063202;28;20036;-65
2022/07/30 11:10:52;;;;;;;5.05;1.65;;;;;;;33.14;28.61;98887.31;5066013;28;20039;-65
2022/07/30 11:13:37;;;;;;;3.30;1.60;;;;;;;31.79;30.23;98888.94;5068936;28;20032;-65
2022/07/30 11:16:03;;;;;;;2.63;1.42;;;;;;;34.09;28.01;98892.59;5044121;28;20035;-64
2022/07/30 11:18:28;;;;;;;4.05;1.70;;;;;;;33.00;29.14;98886.00;5069335;28;20016;-65
2022/07/30 11:21:12;;;;;;;1.67;1.10;;;;;;;31.03;30.06;98878.75;5067921;28;20032;-65
2022/07/30 11:23:39;;;;;;;1.42;1.20;;;;;;;32.14;29.35;98867.03;5067248;28;20116;-64
2022/07/30 11:26:05;;;;;;;4.10;1.38;;;;;;;33.33;27.65;98867.06;5062456;28;20035;-66
2022/07/30 11:28:43;;;;;;;2.25;1.55;;;;;;;33.89;27.37;98882.34;5070078;28;20047;-66
2022/07/30 11:31:26;;;;;;;3.05;1.17;;;;;;;35.70;26.21;98873.31;5067736;28;20020;-64
2022/07/30 11:33:52;;;;;;;4.82;1.42;;;;;;;36.41;24.89;98857.84;5068585;28;20024;-64
2022/07/30 11:36:17;;;;;;;4.40;1.10;;;;;;;37.16;23.99;98843.41;5063820;28;20032;-66